createdAt,value
2023-03-30T00:01:26.764Z,70.10
2023-03-30T00:03:55.319Z,71.00
2023-03-30T00:06:22.921Z,70.50
2023-03-30T00:08:57.205Z,70.90
2023-03-30T00:11:25.069Z,70.40
2023-03-30T00:13:52.118Z,70.10
2023-03-30T00:16:19.605Z,70.30
2023-03-30T00:18:47.294Z,69.90
2023-03-30T00:21:18.035Z,70.40
2023-03-30T00:23:47.718Z,70.10
2023-03-30T00:26:15.326Z,71.00
2023-03-30T00:28:42.216Z,70.60
2023-03-30T00:31:10.660Z,70.90
2023-03-30T00:33:44.551Z,70.20
2023-03-30T00:36:12.361Z,70.20
2023-03-30T00:38:39.295Z,69.80
2023-03-30T00:41:07.135Z,70.50
2023-03-30T00:43:34.239Z,70.40
2023-03-30T00:46:01.098Z,70.60
2023-03-30T00:48:34.786Z,70.50
2023-03-30T00:51:09.349Z,70.00
2023-03-30T00:53:41.274Z,69.90
2023-03-30T00:56:12.807Z,71.00
2023-03-30T00:58:41.150Z,71.10
2023-03-30T01:01:11.299Z,70.70
2023-03-30T01:03:48.745Z,70.80
2023-03-30T01:06:21.809Z,70.30
2023-03-30T01:08:53.273Z,70.40
2023-03-30T01:11:21.507Z,70.40
2023-03-30T01:13:52.997Z,69.90
2023-03-30T01:16:43.021Z,70.00
2023-03-30T01:19:43.709Z,69.80
2023-03-30T01:22:36.833Z,69.70
2023-03-30T01:25:09.969Z,70.10
2023-03-30T01:28:23.150Z,70.10
2023-03-30T01:31:11.570Z,69.60
2023-03-30T01:33:57.418Z,69.60
2023-03-30T01:36:24.032Z,69.80
2023-03-30T01:39:10.113Z,69.90
2023-03-30T01:41:43.029Z,69.70
2023-03-30T01:44:31.089Z,70.10
2023-03-30T01:47:21.478Z,70.40
2023-03-30T01:50:02.839Z,70.30
2023-03-30T01:53:01.632Z,71.00
2023-03-30T01:55:41.496Z,70.60
2023-03-30T01:58:30.822Z,70.00
2023-03-30T02:01:00.744Z,70.00
2023-03-30T02:03:33.069Z,70.10
2023-03-30T02:06:11.515Z,70.10
2023-03-30T02:08:39.854Z,69.90
2023-03-30T02:11:07.762Z,70.20
2023-03-30T02:13:37.732Z,69.90
2023-03-30T02:16:13.424Z,70.30
2023-03-30T02:18:44.840Z,70.40
2023-03-30T02:21:12.412Z,69.90
2023-03-30T02:23:45.228Z,69.50
2023-03-30T02:26:12.926Z,69.80
2023-03-30T02:28:40.153Z,70.00
2023-03-30T02:31:13.707Z,70.30
2023-03-30T02:33:46.842Z,69.70
2023-03-30T02:36:35.171Z,71.80
2023-03-30T02:39:23.891Z,70.50
2023-03-30T02:42:09.396Z,70.10
2023-03-30T02:44:48.004Z,70.80
2023-03-30T02:47:25.307Z,70.40
2023-03-30T02:50:04.845Z,70.40
2023-03-30T02:52:56.877Z,70.90
2023-03-30T02:55:36.838Z,71.10
2023-03-30T02:58:42.660Z,70.90
2023-03-30T03:01:34.839Z,70.70
2023-03-30T03:04:10.678Z,70.90
2023-03-30T03:06:55.669Z,70.40
2023-03-30T03:09:25.038Z,70.50
2023-03-30T03:11:52.739Z,70.30
2023-03-30T03:14:20.701Z,70.40
2023-03-30T03:16:47.990Z,70.20
2023-03-30T03:19:16.540Z,70.30
2023-03-30T03:21:45.585Z,70.30
2023-03-30T03:24:13.812Z,70.40
2023-03-30T03:27:07.266Z,70.30
2023-03-30T03:29:46.253Z,70.20
2023-03-30T03:32:13.139Z,70.20
2023-03-30T03:34:45.780Z,70.10
2023-03-30T03:37:14.050Z,69.90
2023-03-30T03:39:40.849Z,70.10
2023-03-30T03:42:11.459Z,70.50
2023-03-30T03:44:47.097Z,70.10
2023-03-30T03:47:16.458Z,70.70
2023-03-30T03:49:44.038Z,70.50
2023-03-30T03:52:11.051Z,70.30
2023-03-30T03:54:38.126Z,70.80
2023-03-30T03:57:06.184Z,70.10
2023-03-30T03:59:33.922Z,69.90
2023-03-30T04:02:00.775Z,70.30
2023-03-30T04:04:28.186Z,70.80
2023-03-30T04:06:56.243Z,70.30
2023-03-30T04:09:23.486Z,70.70
2023-03-30T04:12:07.186Z,70.40
2023-03-30T04:14:41.053Z,70.40
2023-03-30T04:17:17.347Z,71.00
2023-03-30T04:20:12.068Z,70.20
2023-03-30T04:22:53.564Z,70.60
2023-03-30T04:25:29.995Z,71.30
2023-03-30T04:28:15.736Z,70.80
2023-03-30T04:31:01.358Z,71.20
2023-03-30T04:33:51.866Z,71.20
2023-03-30T04:36:38.276Z,70.60
2023-03-30T04:39:30.104Z,71.30
2023-03-30T04:42:14.028Z,70.90
2023-03-30T04:45:01.149Z,71.60
2023-03-30T04:47:47.368Z,71.20
2023-03-30T04:50:37.917Z,70.90
2023-03-30T04:53:33.766Z,71.50
2023-03-30T04:56:23.514Z,71.30
2023-03-30T04:59:22.615Z,70.80
2023-03-30T05:02:08.949Z,71.10
2023-03-30T05:05:08.372Z,72.10
2023-03-30T05:08:13.379Z,72.20
2023-03-30T05:10:49.886Z,73.10
2023-03-30T05:13:25.979Z,73.20
2023-03-30T05:16:05.498Z,72.10
2023-03-30T05:18:52.354Z,72.40
2023-03-30T05:21:36.105Z,72.10
2023-03-30T05:24:15.033Z,71.90
2023-03-30T05:26:56.256Z,73.10
2023-03-30T05:29:37.075Z,72.90
2023-03-30T05:32:22.470Z,73.00
2023-03-30T05:35:07.905Z,72.40
2023-03-30T05:37:54.450Z,72.30
2023-03-30T05:40:53.843Z,73.40
2023-03-30T05:43:59.055Z,73.90
2023-03-30T05:46:52.427Z,73.40
2023-03-30T05:49:31.504Z,73.80
2023-03-30T05:52:11.613Z,73.90
2023-03-30T05:54:56.887Z,73.00
2023-03-30T05:57:52.747Z,74.10
2023-03-30T06:00:33.379Z,73.20
2023-03-30T06:03:07.961Z,73.30
2023-03-30T06:05:35.987Z,73.80
2023-03-30T06:08:04.992Z,73.80
2023-03-30T06:10:31.752Z,74.50
2023-03-30T06:12:58.746Z,74.60
2023-03-30T06:15:46.055Z,74.50
2023-03-30T06:18:17.694Z,73.90
2023-03-30T06:20:52.695Z,74.30
2023-03-30T06:23:20.229Z,74.00
2023-03-30T06:25:52.503Z,73.90
2023-03-30T06:28:22.845Z,75.10
2023-03-30T06:30:49.565Z,75.10
2023-03-30T06:33:19.575Z,74.30
2023-03-30T06:35:54.352Z,74.20
2023-03-30T06:38:23.400Z,74.20
2023-03-30T06:40:52.340Z,74.30
2023-03-30T06:43:25.342Z,74.40
2023-03-30T06:46:00.742Z,75.70
2023-03-30T06:48:27.651Z,76.10
2023-03-30T06:51:14.540Z,76.50
2023-03-30T06:53:41.918Z,76.40
2023-03-30T06:56:09.168Z,76.50
2023-03-30T06:58:46.795Z,76.30
2023-03-30T07:01:16.009Z,76.30
2023-03-30T07:04:02.825Z,76.70
2023-03-30T07:06:58.167Z,76.90
2023-03-30T07:09:25.530Z,77.00
2023-03-30T07:11:54.447Z,77.30
2023-03-30T07:14:23.005Z,77.40
2023-03-30T07:16:49.983Z,77.00
2023-03-30T07:19:16.790Z,77.20
2023-03-30T07:21:43.557Z,77.20
2023-03-30T07:24:13.986Z,77.10
2023-03-30T07:26:40.662Z,77.20
2023-03-30T07:29:09.458Z,77.00
2023-03-30T07:31:38.989Z,77.30
2023-03-30T07:34:09.267Z,76.90
2023-03-30T07:36:40.367Z,77.30
2023-03-30T07:39:08.127Z,76.70
2023-03-30T07:41:39.249Z,76.70
2023-03-30T07:44:06.294Z,76.60
2023-03-30T07:46:33.073Z,76.90
2023-03-30T07:49:01.108Z,77.20
2023-03-30T07:51:28.333Z,76.90
2023-03-30T07:54:02.101Z,77.60
2023-03-30T07:56:40.246Z,77.80
2023-03-30T07:59:10.565Z,77.30
2023-03-30T08:01:38.864Z,77.30
2023-03-30T08:04:27.843Z,76.90
2023-03-30T08:06:54.750Z,77.50
2023-03-30T08:09:23.626Z,77.30
2023-03-30T08:11:50.544Z,77.40
2023-03-30T08:14:17.534Z,77.30
2023-03-30T08:16:44.241Z,77.60
2023-03-30T08:19:10.920Z,77.70
2023-03-30T08:21:37.598Z,77.40
2023-03-30T08:24:04.481Z,78.10
2023-03-30T08:26:31.153Z,78.30
2023-03-30T08:28:58.084Z,78.50
2023-03-30T08:31:24.907Z,78.50
2023-03-30T08:33:51.665Z,78.50
2023-03-30T08:36:20.182Z,78.40
2023-03-30T08:38:46.846Z,78.50
2023-03-30T08:41:36.883Z,78.50
2023-03-30T08:44:06.671Z,78.70
2023-03-30T08:46:33.909Z,78.70
2023-03-30T08:49:08.124Z,78.70
2023-03-30T08:51:35.877Z,78.70
2023-03-30T08:54:07.064Z,78.90
2023-03-30T08:56:40.364Z,78.70
2023-03-30T08:59:41.029Z,78.80
2023-03-30T09:02:19.142Z,78.90
2023-03-30T09:05:14.286Z,78.80
2023-03-30T09:07:56.122Z,79.00
2023-03-30T09:10:25.120Z,78.90
2023-03-30T09:13:02.186Z,78.70
2023-03-30T09:15:33.491Z,78.70
2023-03-30T09:18:11.721Z,78.60
2023-03-30T09:20:40.721Z,78.70
2023-03-30T09:23:14.213Z,79.20
2023-03-30T09:25:49.167Z,78.60
2023-03-30T09:28:32.798Z,78.70
2023-03-30T09:31:16.108Z,78.60
2023-03-30T09:33:58.167Z,78.80
2023-03-30T09:36:44.368Z,79.00
2023-03-30T09:39:22.637Z,79.00
2023-03-30T09:42:07.728Z,78.60
2023-03-30T09:44:49.875Z,78.70
2023-03-30T09:47:19.534Z,78.80
2023-03-30T09:49:46.234Z,78.70
2023-03-30T09:52:36.914Z,78.50
2023-03-30T09:55:29.547Z,79.30
2023-03-30T09:58:20.973Z,78.80
2023-03-30T10:01:02.247Z,79.00
2023-03-30T10:03:29.259Z,79.00
2023-03-30T10:06:03.815Z,79.10
2023-03-30T10:08:31.071Z,79.30
2023-03-30T10:10:59.566Z,79.30
2023-03-30T10:13:36.586Z,79.50
2023-03-30T10:16:07.874Z,79.50
2023-03-30T10:18:39.575Z,80.10
2023-03-30T10:21:16.976Z,79.80
2023-03-30T10:23:46.108Z,79.60
2023-03-30T10:26:21.383Z,80.00
2023-03-30T10:29:04.458Z,80.20
2023-03-30T10:31:34.965Z,80.20
2023-03-30T10:34:03.697Z,80.60
2023-03-30T10:36:38.904Z,80.50
2023-03-30T10:39:17.919Z,80.50
2023-03-30T10:41:47.257Z,80.60
2023-03-30T10:44:26.231Z,80.60
2023-03-30T10:47:02.965Z,80.60
2023-03-30T10:49:41.006Z,80.60
2023-03-30T10:52:10.786Z,80.30
2023-03-30T10:54:48.769Z,80.40
2023-03-30T10:57:21.764Z,80.20
2023-03-30T11:00:23.780Z,79.80
2023-03-30T11:02:56.859Z,79.30
2023-03-30T11:05:44.598Z,79.90
2023-03-30T11:08:42.723Z,79.50
2023-03-30T11:11:18.329Z,80.10
2023-03-30T11:13:50.442Z,80.00
2023-03-30T11:16:31.169Z,79.60
2023-03-30T11:19:06.918Z,79.80
2023-03-30T11:21:41.005Z,79.30
2023-03-30T11:24:17.425Z,78.50
2023-03-30T11:26:59.132Z,79.70
2023-03-30T11:29:40.691Z,79.20
2023-03-30T11:32:30.403Z,79.00
2023-03-30T11:35:23.098Z,78.90
2023-03-30T11:38:02.885Z,78.70
2023-03-30T11:40:46.309Z,77.50
2023-03-30T11:43:15.543Z,77.60
2023-03-30T11:46:06.809Z,78.10
2023-03-30T11:48:49.478Z,79.40
2023-03-30T11:51:53.553Z,78.90
2023-03-30T11:54:59.807Z,78.40
2023-03-30T11:57:44.495Z,77.90
2023-03-30T12:00:32.384Z,78.30
2023-03-30T12:03:30.785Z,79.30
2023-03-30T12:06:11.029Z,79.50
2023-03-30T12:09:08.140Z,79.50
2023-03-30T12:11:37.730Z,78.90
2023-03-30T12:14:21.920Z,79.20
2023-03-30T12:16:52.975Z,79.10
2023-03-30T12:19:28.645Z,78.90
2023-03-30T12:22:04.548Z,79.20
2023-03-30T12:24:41.944Z,79.00
2023-03-30T12:27:11.596Z,78.90
2023-03-30T12:32:29.218Z,79.00
2023-03-30T12:34:58.107Z,78.90
2023-03-30T12:37:33.417Z,79.10
2023-03-30T12:40:22.384Z,78.90
2023-03-30T12:43:01.660Z,79.20
2023-03-30T12:45:33.124Z,78.90
2023-03-30T12:48:52.495Z,78.70
2023-03-30T12:51:52.581Z,78.00
2023-03-30T12:54:25.411Z,78.40
2023-03-30T12:57:08.901Z,78.90
2023-03-30T12:59:50.408Z,78.80
2023-03-30T13:02:35.564Z,78.80
2023-03-30T13:05:03.054Z,78.60
2023-03-30T13:07:36.223Z,78.80
2023-03-30T13:10:24.699Z,77.80
2023-03-30T13:12:51.390Z,77.90
2023-03-30T13:15:33.120Z,78.00
2023-03-30T13:18:01.432Z,79.00
2023-03-30T13:20:36.607Z,78.90
2023-03-30T13:23:09.146Z,78.80
2023-03-30T13:25:49.044Z,77.20
2023-03-30T13:28:45.596Z,78.40
2023-03-30T13:31:25.609Z,77.60
2023-03-30T13:34:11.967Z,77.80
2023-03-30T13:36:59.328Z,77.10
2023-03-30T13:39:42.413Z,78.30
2023-03-30T13:42:54.109Z,77.90
2023-03-30T13:45:32.326Z,78.30
2023-03-30T13:48:29.898Z,77.70
2023-03-30T13:51:02.503Z,77.30
2023-03-30T13:53:38.197Z,77.80
2023-03-30T13:56:10.419Z,78.40
2023-03-30T13:58:38.464Z,77.90
2023-03-30T14:01:19.427Z,78.10
2023-03-30T14:04:02.412Z,76.80
2023-03-30T14:06:31.772Z,78.50
2023-03-30T14:09:05.394Z,77.80
2023-03-30T14:11:37.108Z,78.50
2023-03-30T14:14:04.965Z,78.40
2023-03-30T14:16:40.505Z,78.00
2023-03-30T14:19:27.600Z,78.60
2023-03-30T14:22:01.435Z,78.50
2023-03-30T14:24:31.331Z,78.50
2023-03-30T14:27:03.805Z,76.80
2023-03-30T14:29:32.261Z,77.80
2023-03-30T14:34:33.544Z,78.20
2023-03-30T14:37:08.210Z,78.90
2023-03-30T14:39:47.413Z,78.30
2023-03-30T14:42:25.672Z,76.70
2023-03-30T14:44:55.530Z,77.50
2023-03-30T14:47:24.830Z,78.70
2023-03-30T14:49:55.473Z,78.90
2023-03-30T14:52:29.958Z,77.60
2023-03-30T14:55:07.490Z,76.60
2023-03-30T14:57:39.423Z,76.80
2023-03-30T15:00:17.541Z,78.40
2023-03-30T15:02:45.499Z,78.50
2023-03-30T15:05:16.531Z,78.40
2023-03-30T15:07:46.274Z,78.50
2023-03-30T15:10:35.298Z,78.30
2023-03-30T15:13:04.532Z,78.70
2023-03-30T15:15:32.724Z,78.40
2023-03-30T15:18:00.095Z,78.50
2023-03-30T15:20:29.421Z,79.00
2023-03-30T15:22:56.723Z,78.80
2023-03-30T15:25:35.672Z,78.70
2023-03-30T15:28:15.286Z,78.10
2023-03-30T15:30:46.038Z,78.70
2023-03-30T15:33:41.716Z,78.00
2023-03-30T15:36:19.892Z,76.80
2023-03-30T15:38:55.855Z,77.70
2023-03-30T15:41:42.504Z,78.90
2023-03-30T15:44:10.777Z,79.10
2023-03-30T15:46:38.359Z,78.80
2023-03-30T15:49:06.821Z,78.80
2023-03-30T15:51:42.257Z,78.90
2023-03-30T15:54:17.776Z,78.90
2023-03-30T15:56:53.669Z,78.60
2023-03-30T15:59:22.872Z,77.80
2023-03-30T16:01:55.951Z,78.20
2023-03-30T16:04:24.836Z,77.20
2023-03-30T16:06:52.681Z,79.00
2023-03-30T16:09:19.501Z,78.80
2023-03-30T16:11:46.951Z,77.20
2023-03-30T16:14:17.554Z,78.40
2023-03-30T16:16:44.565Z,78.90
2023-03-30T16:19:17.617Z,78.50
2023-03-30T16:21:45.647Z,77.30
2023-03-30T16:24:12.702Z,77.60
2023-03-30T16:26:39.716Z,77.10
2023-03-30T16:29:18.080Z,77.30
2023-03-30T16:31:44.743Z,78.40
2023-03-30T16:34:11.602Z,77.20
2023-03-30T16:36:38.254Z,78.00
2023-03-30T16:39:06.731Z,78.00
2023-03-30T16:41:33.424Z,78.60
2023-03-30T16:44:00.350Z,77.60
2023-03-30T16:46:27.110Z,78.20
2023-03-30T16:48:53.791Z,78.00
2023-03-30T16:51:20.494Z,78.50
2023-03-30T16:53:47.689Z,77.50
2023-03-30T16:56:18.770Z,78.40
2023-03-30T16:58:46.670Z,78.30
2023-03-30T17:01:18.136Z,78.20
2023-03-30T17:03:45.698Z,77.70
2023-03-30T17:06:14.017Z,78.40
2023-03-30T17:08:42.796Z,77.50
2023-03-30T17:11:10.817Z,77.90
2023-03-30T17:13:37.474Z,78.70
2023-03-30T17:16:04.306Z,78.10
2023-03-30T17:18:31.194Z,78.40
2023-03-30T17:21:00.020Z,76.60
2023-03-30T17:23:28.814Z,77.90
2023-03-30T17:25:57.658Z,77.80
2023-03-30T17:28:27.948Z,77.10
2023-03-30T17:30:57.245Z,77.70
2023-03-30T17:33:24.475Z,76.60
2023-03-30T17:35:57.525Z,78.30
2023-03-30T17:38:24.987Z,78.30
2023-03-30T17:40:52.061Z,78.30
2023-03-30T17:43:18.843Z,78.20
2023-03-30T17:45:46.832Z,78.20
2023-03-30T17:48:16.523Z,78.10
2023-03-30T17:50:49.296Z,78.10
2023-03-30T17:53:17.770Z,77.90
2023-03-30T17:55:46.994Z,76.40
2023-03-30T17:58:24.307Z,77.80
2023-03-30T18:00:52.362Z,77.20
2023-03-30T18:03:21.254Z,78.00
2023-03-30T18:05:49.110Z,77.70
2023-03-30T18:08:18.837Z,77.90
2023-03-30T18:10:51.646Z,77.90
2023-03-30T18:13:19.645Z,77.70
2023-03-30T18:15:49.614Z,77.70
2023-03-30T18:18:22.463Z,77.80
2023-03-30T18:20:51.222Z,77.80
2023-03-30T18:23:18.845Z,77.70
2023-03-30T18:25:46.120Z,77.80
2023-03-30T18:28:17.409Z,77.60
2023-03-30T18:30:44.433Z,77.60
2023-03-30T18:33:11.218Z,77.60
2023-03-30T18:35:39.247Z,77.50
2023-03-30T18:38:06.261Z,77.60
2023-03-30T18:40:38.276Z,77.50
2023-03-30T18:43:06.083Z,77.50
2023-03-30T18:45:41.032Z,77.50
2023-03-30T18:48:11.110Z,77.40
2023-03-30T18:50:40.269Z,77.30
2023-03-30T18:53:10.355Z,77.40
2023-03-30T18:55:39.350Z,77.40
2023-03-30T18:58:12.584Z,77.30
2023-03-30T19:00:39.261Z,77.20
2023-03-30T19:03:06.191Z,77.20
2023-03-30T19:05:34.467Z,77.30
2023-03-30T19:08:01.971Z,77.30
2023-03-30T19:10:31.142Z,77.10
2023-03-30T19:12:58.184Z,77.10
2023-03-30T19:15:26.810Z,77.10
2023-03-30T19:17:53.853Z,77.10
2023-03-30T19:20:23.379Z,77.10
2023-03-30T19:22:50.517Z,77.00
2023-03-30T19:25:19.659Z,77.00
2023-03-30T19:27:59.693Z,77.60
2023-03-30T19:30:32.171Z,76.90
2023-03-30T19:33:01.297Z,76.90
2023-03-30T19:35:29.105Z,76.90
2023-03-30T19:37:56.077Z,76.90
2023-03-30T19:40:23.836Z,76.80
2023-03-30T19:42:51.342Z,76.80
2023-03-30T19:45:21.255Z,76.80
2023-03-30T19:47:48.240Z,76.70
2023-03-30T19:50:20.281Z,76.70
2023-03-30T19:52:50.065Z,76.60
2023-03-30T19:55:19.516Z,76.60
2023-03-30T19:57:46.715Z,76.40
2023-03-30T20:00:15.868Z,76.50
2023-03-30T20:02:48.733Z,76.40
2023-03-30T20:05:16.682Z,76.60
2023-03-30T20:07:44.918Z,76.50
2023-03-30T20:10:14.917Z,77.10
2023-03-30T20:12:42.490Z,76.50
2023-03-30T20:15:09.632Z,76.60
2023-03-30T20:17:38.185Z,76.40
2023-03-30T20:20:08.392Z,76.40
2023-03-30T20:22:42.490Z,76.30
2023-03-30T20:25:12.712Z,76.40
2023-03-30T20:27:40.115Z,76.40
2023-03-30T20:30:07.469Z,76.30
2023-03-30T20:32:34.984Z,76.40
2023-03-30T20:35:01.752Z,76.40
2023-03-30T20:37:28.635Z,76.30
2023-03-30T20:40:03.523Z,76.30
2023-03-30T20:42:33.386Z,76.20
2023-03-30T20:45:00.865Z,76.10
2023-03-30T20:47:30.200Z,76.10
2023-03-30T20:49:58.169Z,76.40
2023-03-30T20:52:25.222Z,75.40
2023-03-30T20:54:52.516Z,75.90
2023-03-30T20:57:20.439Z,76.30
2023-03-30T20:59:48.011Z,76.40
2023-03-30T21:02:15.655Z,76.70
2023-03-30T21:04:43.444Z,76.60
2023-03-30T21:07:10.611Z,76.60
2023-03-30T21:09:38.188Z,76.60
2023-03-30T21:12:05.138Z,76.50
2023-03-30T21:14:31.833Z,76.50
2023-03-30T21:16:58.636Z,76.60
2023-03-30T21:19:25.309Z,76.40
2023-03-30T21:21:51.936Z,76.60
2023-03-30T21:24:18.685Z,76.60
2023-03-30T21:26:45.524Z,76.50
2023-03-30T21:29:12.214Z,76.50
2023-03-30T21:31:38.983Z,76.40
2023-03-30T21:34:08.261Z,76.40
2023-03-30T21:36:35.116Z,76.50
2023-03-30T21:39:02.004Z,76.40
2023-03-30T21:41:29.818Z,76.30
2023-03-30T21:43:56.516Z,76.40
2023-03-30T21:46:24.756Z,76.30
2023-03-30T21:48:53.936Z,76.30
2023-03-30T21:51:27.204Z,76.30
2023-03-30T21:53:55.531Z,76.30
2023-03-30T21:56:24.634Z,76.40
2023-03-30T21:58:51.893Z,76.30
2023-03-30T22:01:20.038Z,76.30
2023-03-30T22:03:47.145Z,76.30
2023-03-30T22:06:16.002Z,76.30
2023-03-30T22:08:44.905Z,76.20
2023-03-30T22:11:17.190Z,76.20
2023-03-30T22:13:46.093Z,76.10
2023-03-30T22:16:17.510Z,76.30
2023-03-30T22:18:45.484Z,76.20
2023-03-30T22:21:17.243Z,76.10
2023-03-30T22:23:44.439Z,76.10
2023-03-30T22:26:11.850Z,76.10
2023-03-30T22:28:38.772Z,76.10
2023-03-30T22:31:14.057Z,76.00
2023-03-30T22:33:41.418Z,76.10
2023-03-30T22:36:20.350Z,76.00
2023-03-30T22:38:48.570Z,75.90
2023-03-30T22:41:15.886Z,76.00
2023-03-30T22:43:42.601Z,76.10
2023-03-30T22:46:09.699Z,76.00
2023-03-30T22:48:36.791Z,76.00
2023-03-30T22:51:04.525Z,76.00
2023-03-30T22:53:32.125Z,76.00
2023-03-30T22:55:59.394Z,75.90
2023-03-30T22:58:26.632Z,75.90
2023-03-30T23:00:59.655Z,75.90
2023-03-30T23:03:26.421Z,76.00
2023-03-30T23:05:53.104Z,75.80
2023-03-30T23:08:20.020Z,75.90
2023-03-30T23:10:46.665Z,75.90
2023-03-30T23:13:14.076Z,76.00
2023-03-30T23:15:40.841Z,75.90
2023-03-30T23:18:07.726Z,75.90
2023-03-30T23:20:34.528Z,75.80
2023-03-30T23:23:01.571Z,75.80
2023-03-30T23:25:28.290Z,75.80
2023-03-30T23:27:55.035Z,75.90
2023-03-30T23:30:21.748Z,75.90
2023-03-30T23:32:48.406Z,75.80
2023-03-30T23:35:15.285Z,75.70
2023-03-30T23:37:45.221Z,75.70
2023-03-30T23:40:12.499Z,75.70
2023-03-30T23:42:39.148Z,75.70
2023-03-30T23:45:06.496Z,75.60
2023-03-30T23:47:33.209Z,75.60
2023-03-30T23:49:59.956Z,75.60
2023-03-30T23:52:27.099Z,75.70
2023-03-30T23:54:53.791Z,75.60
2023-03-30T23:57:20.702Z,75.40
2023-03-30T23:59:47.375Z,75.50
